createdAt,value
2023-11-01T00:01:12.386Z,1.10
2023-11-01T00:03:39.399Z,0.90
2023-11-01T00:06:06.527Z,0.90
2023-11-01T00:08:33.160Z,1.00
2023-11-01T00:10:59.901Z,1.10
2023-11-01T00:13:26.861Z,1.13
2023-11-01T00:15:53.432Z,1.07
2023-11-01T00:18:20.108Z,1.20
2023-11-01T00:20:46.786Z,0.97
2023-11-01T00:23:13.359Z,2.60
2023-11-01T00:25:39.991Z,0.90
2023-11-01T00:28:06.541Z,1.20
2023-11-01T00:30:33.091Z,1.00
2023-11-01T00:32:59.716Z,1.30
2023-11-01T00:35:26.404Z,1.07
2023-11-01T00:37:53.028Z,1.20
2023-11-01T00:40:19.601Z,1.30
2023-11-01T00:42:47.019Z,0.90
2023-11-01T00:45:14.126Z,1.10
2023-11-01T00:47:40.841Z,1.00
2023-11-01T00:50:07.919Z,1.00
2023-11-01T00:52:34.479Z,1.00
2023-11-01T00:55:01.138Z,0.80
2023-11-01T00:57:27.643Z,1.47
2023-11-01T00:59:54.954Z,1.00
2023-11-01T01:02:21.606Z,1.03
2023-11-01T01:04:48.296Z,1.00
2023-11-01T01:07:14.876Z,1.10
2023-11-01T01:09:41.446Z,1.03
2023-11-01T01:12:08.295Z,1.10
2023-11-01T01:14:35.001Z,1.30
2023-11-01T01:17:01.680Z,1.00
2023-11-01T01:19:28.517Z,1.03
2023-11-01T01:21:55.072Z,1.07
2023-11-01T01:24:22.106Z,1.10
2023-11-01T01:26:48.680Z,0.93
2023-11-01T01:29:15.255Z,1.20
2023-11-01T01:31:41.861Z,1.30
2023-11-01T01:34:08.434Z,1.00
2023-11-01T01:36:34.996Z,0.90
2023-11-01T01:39:01.595Z,0.90
2023-11-01T01:41:28.141Z,1.00
2023-11-01T01:43:54.827Z,1.17
2023-11-01T01:46:23.487Z,1.10
2023-11-01T01:48:50.213Z,1.03
2023-11-01T01:51:16.813Z,1.00
2023-11-01T01:53:45.535Z,1.13
2023-11-01T01:56:12.315Z,1.10
2023-11-01T01:58:44.823Z,1.03
2023-11-01T02:01:11.458Z,1.10
2023-11-01T02:03:38.211Z,0.90
2023-11-01T02:06:06.526Z,1.10
2023-11-01T02:08:33.227Z,1.00
2023-11-01T02:11:00.288Z,1.20
2023-11-01T02:13:26.829Z,1.10
2023-11-01T02:15:53.410Z,1.00
2023-11-01T02:18:20.017Z,1.10
2023-11-01T02:20:47.446Z,0.80
2023-11-01T02:23:14.518Z,1.00
2023-11-01T02:25:41.690Z,1.20
2023-11-01T02:28:09.180Z,1.20
2023-11-01T02:30:35.873Z,1.00
2023-11-01T02:33:02.559Z,1.07
2023-11-01T02:35:29.174Z,1.00
2023-11-01T02:37:55.751Z,0.90
2023-11-01T02:40:22.272Z,1.10
2023-11-01T02:42:49.341Z,0.90
2023-11-01T02:45:16.009Z,1.00
2023-11-01T02:47:43.606Z,4.93
2023-11-01T02:50:11.934Z,1.00
2023-11-01T02:52:38.953Z,0.87
2023-11-01T02:55:08.749Z,0.90
2023-11-01T02:57:35.330Z,1.20
2023-11-01T03:00:02.073Z,1.13
2023-11-01T03:02:28.709Z,1.00
2023-11-01T03:04:55.293Z,1.00
2023-11-01T03:07:21.814Z,1.00
2023-11-01T03:09:48.723Z,1.07
2023-11-01T03:12:15.252Z,0.90
2023-11-01T03:14:42.487Z,0.90
2023-11-01T03:17:09.993Z,1.00
2023-11-01T03:19:38.181Z,1.00
2023-11-01T03:22:05.120Z,1.00
2023-11-01T03:24:32.145Z,1.10
2023-11-01T03:26:59.233Z,0.90
2023-11-01T03:29:26.092Z,0.90
2023-11-01T03:31:52.647Z,1.00
2023-11-01T03:34:19.696Z,1.00
2023-11-01T03:36:46.247Z,1.00
2023-11-01T03:39:14.441Z,1.00
2023-11-01T03:41:44.213Z,1.10
2023-11-01T03:44:10.916Z,1.00
2023-11-01T03:46:37.829Z,1.00
2023-11-01T03:49:04.365Z,0.90
2023-11-01T03:51:31.909Z,0.90
2023-11-01T03:53:58.466Z,1.00
2023-11-01T03:56:25.054Z,0.93
2023-11-01T03:58:51.602Z,0.90
2023-11-01T04:01:18.251Z,1.13
2023-11-01T04:03:45.054Z,0.90
2023-11-01T04:06:12.310Z,0.83
2023-11-01T04:08:39.171Z,1.10
2023-11-01T04:11:06.024Z,0.80
2023-11-01T04:13:32.624Z,1.20
2023-11-01T04:15:59.249Z,1.03
2023-11-01T04:18:26.178Z,1.00
2023-11-01T04:20:53.170Z,1.00
2023-11-01T04:23:20.677Z,1.30
2023-11-01T04:25:47.306Z,0.80
2023-11-01T04:28:13.860Z,1.00
2023-11-01T04:30:40.561Z,0.90
2023-11-01T04:33:11.720Z,0.90
2023-11-01T04:35:38.518Z,0.93
2023-11-01T04:38:05.104Z,1.20
2023-11-01T04:40:32.803Z,1.00
2023-11-01T04:42:59.465Z,1.00
2023-11-01T04:45:26.497Z,0.90
2023-11-01T04:47:53.238Z,0.90
2023-11-01T04:50:20.959Z,0.83
2023-11-01T04:52:47.928Z,0.90
2023-11-01T04:55:14.498Z,0.87
2023-11-01T04:57:42.977Z,1.13
2023-11-01T05:00:10.343Z,1.07
2023-11-01T05:02:37.411Z,0.90
2023-11-01T05:05:07.091Z,0.90
2023-11-01T05:07:34.519Z,1.00
2023-11-01T05:10:01.050Z,1.03
2023-11-01T05:12:27.689Z,2.47
2023-11-01T05:14:54.442Z,1.10
2023-11-01T05:17:21.739Z,1.00
2023-11-01T05:19:48.288Z,0.83
2023-11-01T05:22:14.881Z,1.20
2023-11-01T05:24:41.457Z,1.40
2023-11-01T05:27:08.669Z,1.47
2023-11-01T05:29:35.388Z,1.20
2023-11-01T05:32:01.952Z,1.10
2023-11-01T05:34:28.514Z,1.00
2023-11-01T05:36:55.102Z,1.10
2023-11-01T05:39:21.637Z,8.00
2023-11-01T05:41:48.333Z,1.37
2023-11-01T05:44:14.840Z,1.10
2023-11-01T05:46:41.401Z,1.70
2023-11-01T05:49:09.613Z,3.30
2023-11-01T05:51:36.168Z,1.93
2023-11-01T05:54:02.808Z,1.20
2023-11-01T05:56:29.435Z,2.70
2023-11-01T05:58:57.140Z,1.70
2023-11-01T06:01:26.804Z,1.07
2023-11-01T06:03:57.708Z,3.23
2023-11-01T06:06:27.514Z,6.23
2023-11-01T06:08:54.145Z,1.50
2023-11-01T06:11:20.805Z,4.73
2023-11-01T06:13:47.562Z,6.87
2023-11-01T06:16:14.090Z,3.43
2023-11-01T06:18:40.590Z,1.33
2023-11-01T06:21:07.175Z,1.60
2023-11-01T06:23:37.411Z,2.00
2023-11-01T06:26:05.811Z,5.10
2023-11-01T06:28:32.497Z,1.63
2023-11-01T06:30:59.015Z,5.97
2023-11-01T06:33:25.663Z,2.37
2023-11-01T06:35:52.337Z,1.50
2023-11-01T06:38:18.946Z,4.37
2023-11-01T06:40:45.475Z,1.80
2023-11-01T06:43:12.041Z,1.97
2023-11-01T06:45:38.649Z,1.67
2023-11-01T06:48:05.378Z,1.37
2023-11-01T06:50:31.955Z,2.07
2023-11-01T06:52:58.851Z,1.60
2023-11-01T06:55:25.446Z,2.37
2023-11-01T06:57:52.141Z,1.43
2023-11-01T07:00:18.896Z,1.60
2023-11-01T07:02:45.597Z,1.20
2023-11-01T07:05:12.143Z,2.20
2023-11-01T07:07:38.682Z,1.30
2023-11-01T07:10:06.983Z,5.77
2023-11-01T07:12:33.556Z,2.90
2023-11-01T07:15:00.120Z,4.83
2023-11-01T07:17:29.180Z,2.27
2023-11-01T07:19:56.309Z,2.30
2023-11-01T07:22:23.185Z,2.97
2023-11-01T07:24:50.160Z,2.10
2023-11-01T07:27:16.679Z,2.40
2023-11-01T07:29:43.269Z,2.57
2023-11-01T07:32:10.314Z,6.40
2023-11-01T07:34:37.138Z,2.17
2023-11-01T07:37:04.587Z,2.57
2023-11-01T07:39:31.252Z,2.03
2023-11-01T07:41:57.839Z,4.60
2023-11-01T07:44:24.403Z,2.30
2023-11-01T07:46:51.054Z,3.33
2023-11-01T07:49:17.628Z,2.43
2023-11-01T07:51:44.148Z,2.23
2023-11-01T07:54:10.761Z,2.20
2023-11-01T07:56:37.361Z,2.50
2023-11-01T07:59:04.244Z,3.37
2023-11-01T08:01:32.669Z,2.47
2023-11-01T08:03:59.352Z,1.77
2023-11-01T08:06:26.094Z,2.80
2023-11-01T08:08:52.701Z,2.00
2023-11-01T08:11:19.496Z,1.80
2023-11-01T08:13:46.071Z,3.30
2023-11-01T08:16:12.731Z,3.23
2023-11-01T08:18:39.254Z,1.97
2023-11-01T08:21:06.414Z,2.73
2023-11-01T08:23:33.141Z,2.00
2023-11-01T08:25:59.721Z,1.87
2023-11-01T08:28:27.108Z,2.17
2023-11-01T08:30:53.663Z,1.80
2023-11-01T08:33:20.482Z,1.77
2023-11-01T08:35:47.193Z,1.67
2023-11-01T08:38:13.754Z,1.93
2023-11-01T08:40:40.277Z,1.80
2023-11-01T08:43:06.955Z,2.47
2023-11-01T08:45:34.001Z,1.47
2023-11-01T08:48:01.511Z,1.77
2023-11-01T08:50:28.291Z,1.80
2023-11-01T08:52:55.313Z,1.70
2023-11-01T08:55:21.944Z,2.47
2023-11-01T08:57:48.701Z,2.33
2023-11-01T09:00:15.541Z,1.70
2023-11-01T09:02:42.585Z,1.60
2023-11-01T09:05:09.664Z,1.73
2023-11-01T09:07:37.669Z,1.83
2023-11-01T09:10:04.571Z,1.60
2023-11-01T09:12:31.187Z,1.77
2023-11-01T09:14:57.779Z,2.27
2023-11-01T09:17:25.462Z,2.30
2023-11-01T09:19:52.080Z,1.97
2023-11-01T09:22:18.604Z,1.67
2023-11-01T09:24:45.154Z,1.43
2023-11-01T09:27:11.672Z,1.50
2023-11-01T09:29:38.300Z,1.70
2023-11-01T09:32:05.602Z,2.10
2023-11-01T09:34:32.853Z,1.50
2023-11-01T09:36:59.378Z,1.60
2023-11-01T09:39:25.952Z,1.73
2023-11-01T09:42:21.519Z,1.70
2023-11-01T09:44:49.215Z,1.93
2023-11-01T09:47:17.048Z,1.53
2023-11-01T09:49:44.590Z,1.97
2023-11-01T09:52:14.032Z,1.77
2023-11-01T09:54:40.525Z,2.20
2023-11-01T09:57:07.526Z,3.90
2023-11-01T09:59:35.073Z,1.60
2023-11-01T10:02:01.726Z,2.00
2023-11-01T10:04:28.736Z,1.80
2023-11-01T10:06:55.351Z,1.50
2023-11-01T10:09:21.992Z,5.03
2023-11-01T10:11:48.579Z,1.60
2023-11-01T10:14:36.360Z,1.53
2023-11-01T10:17:03.914Z,1.53
2023-11-01T10:19:30.460Z,1.70
2023-11-01T10:21:57.079Z,1.57
2023-11-01T10:24:24.745Z,1.80
2023-11-01T10:26:51.553Z,1.57
2023-11-01T10:29:18.105Z,1.77
2023-11-01T10:31:52.814Z,1.60
2023-11-01T10:34:19.562Z,1.90
2023-11-01T10:36:53.030Z,1.63
2023-11-01T10:39:20.208Z,1.53
2023-11-01T10:41:56.430Z,1.60
2023-11-01T10:44:23.761Z,1.70
2023-11-01T10:46:50.571Z,2.47
2023-11-01T10:49:17.355Z,1.60
2023-11-01T10:51:44.833Z,1.90
2023-11-01T10:54:12.029Z,1.83
2023-11-01T10:56:38.686Z,1.50
2023-11-01T10:59:21.905Z,1.73
2023-11-01T11:02:26.917Z,1.67
2023-11-01T11:05:05.765Z,1.40
2023-11-01T11:07:50.104Z,1.37
2023-11-01T11:10:38.038Z,1.60
2023-11-01T11:13:10.597Z,1.87
2023-11-01T11:15:52.603Z,2.43
2023-11-01T11:18:22.823Z,1.57
2023-11-01T11:20:50.971Z,1.63
2023-11-01T11:23:18.677Z,2.57
2023-11-01T11:25:46.331Z,1.60
2023-11-01T11:28:13.800Z,2.73
2023-11-01T11:30:46.946Z,1.60
2023-11-01T11:33:14.279Z,1.63
2023-11-01T11:35:40.982Z,2.73
2023-11-01T11:38:35.363Z,1.40
2023-11-01T11:41:17.257Z,1.67
2023-11-01T11:44:10.304Z,1.60
2023-11-01T11:46:43.866Z,2.80
2023-11-01T11:49:29.539Z,1.43
2023-11-01T11:52:00.144Z,1.50
2023-11-01T11:54:28.281Z,1.40
2023-11-01T11:56:55.022Z,1.60
2023-11-01T11:59:22.947Z,1.30
2023-11-01T12:01:52.733Z,1.40
2023-11-01T12:04:19.791Z,1.93
2023-11-01T12:06:47.146Z,1.70
2023-11-01T12:09:23.864Z,5.33
2023-11-01T12:11:51.001Z,1.57
2023-11-01T12:14:21.458Z,1.87
2023-11-01T12:16:48.487Z,4.93
2023-11-01T12:19:15.054Z,1.57
2023-11-01T12:21:42.290Z,1.73
2023-11-01T12:24:11.194Z,1.80
2023-11-01T12:26:56.088Z,1.57
2023-11-01T12:29:22.695Z,2.83
2023-11-01T12:32:20.331Z,2.17
2023-11-01T12:34:50.172Z,2.63
2023-11-01T12:37:20.694Z,3.30
2023-11-01T12:40:04.966Z,1.60
2023-11-01T12:42:34.641Z,2.00
2023-11-01T12:45:01.465Z,2.20
2023-11-01T12:47:32.679Z,3.63
2023-11-01T12:49:59.788Z,5.93
2023-11-01T12:52:26.549Z,5.00
2023-11-01T12:54:53.106Z,4.10
2023-11-01T12:57:19.640Z,3.30
2023-11-01T12:59:46.616Z,3.77
2023-11-01T13:02:13.275Z,3.57
2023-11-01T13:04:39.877Z,6.13
2023-11-01T13:07:06.613Z,5.67
2023-11-01T13:09:33.277Z,6.43
2023-11-01T13:11:59.862Z,12.63
2023-11-01T13:14:26.400Z,8.30
2023-11-01T13:16:53.091Z,6.90
2023-11-01T13:19:19.821Z,11.33
2023-11-01T13:21:46.521Z,7.53
2023-11-01T13:24:13.203Z,9.83
2023-11-01T13:26:39.924Z,7.50
2023-11-01T13:29:07.344Z,12.90
2023-11-01T13:31:34.340Z,7.97
2023-11-01T13:34:00.929Z,7.90
2023-11-01T13:36:27.524Z,9.10
2023-11-01T13:38:54.147Z,9.13
2023-11-01T13:41:20.749Z,7.77
2023-11-01T13:43:47.288Z,9.53
2023-11-01T13:46:14.595Z,6.67
2023-11-01T13:48:42.260Z,9.77
2023-11-01T13:51:10.296Z,9.47
2023-11-01T13:53:38.397Z,9.43
2023-11-01T13:56:08.178Z,6.90
2023-11-01T13:58:36.955Z,8.17
2023-11-01T14:01:03.831Z,7.77
2023-11-01T14:03:33.481Z,11.90
2023-11-01T14:06:00.251Z,7.30
2023-11-01T14:08:27.109Z,5.40
2023-11-01T14:10:54.431Z,5.77
2023-11-01T14:13:20.997Z,5.90
2023-11-01T14:15:49.729Z,6.27
2023-11-01T14:18:20.565Z,8.00
2023-11-01T14:20:50.606Z,5.73
2023-11-01T14:23:17.683Z,6.67
2023-11-01T14:25:45.642Z,5.47
2023-11-01T14:28:13.397Z,4.90
2023-11-01T14:30:40.364Z,6.90
2023-11-01T14:33:07.085Z,4.73
2023-11-01T14:35:33.695Z,8.47
2023-11-01T14:38:00.541Z,6.00
2023-11-01T14:40:28.447Z,6.03
2023-11-01T14:42:56.548Z,5.93
2023-11-01T14:45:23.125Z,7.90
2023-11-01T14:47:50.826Z,7.60
2023-11-01T14:50:17.475Z,6.20
2023-11-01T14:52:44.010Z,5.17
2023-11-01T14:55:10.785Z,5.43
2023-11-01T14:57:38.319Z,4.63
2023-11-01T15:00:08.471Z,5.97
2023-11-01T15:02:38.261Z,5.27
2023-11-01T15:05:05.254Z,4.70
2023-11-01T15:07:32.081Z,5.83
2023-11-01T15:09:59.023Z,7.07
2023-11-01T15:12:26.822Z,6.37
2023-11-01T15:14:53.617Z,5.17
2023-11-01T15:17:20.191Z,5.20
2023-11-01T15:19:48.952Z,5.00
2023-11-01T15:22:16.135Z,4.83
2023-11-01T15:24:49.539Z,5.20
2023-11-01T15:27:16.772Z,4.33
2023-11-01T15:29:43.726Z,5.07
2023-11-01T15:32:10.335Z,5.43
2023-11-01T15:34:36.970Z,4.83
2023-11-01T15:37:04.054Z,5.30
2023-11-01T15:39:30.716Z,6.77
2023-11-01T15:41:57.367Z,7.50
2023-11-01T15:44:23.945Z,4.17
2023-11-01T15:46:51.527Z,7.27
2023-11-01T15:49:18.084Z,5.93
2023-11-01T15:51:44.609Z,4.47
2023-11-01T15:54:11.193Z,5.57
2023-11-01T15:56:38.576Z,5.70
2023-11-01T15:59:06.010Z,4.57
2023-11-01T16:01:32.700Z,4.47
2023-11-01T16:03:59.460Z,4.97
2023-11-01T16:06:26.174Z,4.60
2023-11-01T16:08:52.795Z,5.60
2023-11-01T16:11:19.480Z,4.77
2023-11-01T16:13:47.985Z,4.27
2023-11-01T16:16:16.587Z,4.67
2023-11-01T16:18:43.777Z,4.50
2023-11-01T16:21:18.731Z,5.47
2023-11-01T16:23:45.723Z,3.10
2023-11-01T16:26:13.177Z,5.20
2023-11-01T16:28:40.283Z,3.27
2023-11-01T16:31:07.219Z,4.80
2023-11-01T16:33:34.321Z,4.47
2023-11-01T16:36:01.049Z,4.83
2023-11-01T16:38:27.678Z,3.87
2023-11-01T16:40:54.579Z,5.43
2023-11-01T16:43:21.111Z,4.67
2023-11-01T16:45:47.946Z,5.80
2023-11-01T16:48:14.624Z,4.93
2023-11-01T16:50:41.231Z,5.63
2023-11-01T16:53:07.759Z,5.47
2023-11-01T16:55:34.382Z,4.97
2023-11-01T16:58:02.660Z,4.80
2023-11-01T17:00:29.434Z,4.80
2023-11-01T17:02:56.181Z,5.83
2023-11-01T17:05:22.898Z,3.80
2023-11-01T17:07:49.508Z,4.53
2023-11-01T17:10:16.363Z,4.43
2023-11-01T17:12:42.881Z,3.73
2023-11-01T17:15:09.828Z,3.17
2023-11-01T17:17:39.096Z,3.40
2023-11-01T17:20:06.234Z,3.87
2023-11-01T17:22:44.802Z,5.63
2023-11-01T17:25:54.317Z,3.80
2023-11-01T17:28:25.316Z,3.97
2023-11-01T17:30:52.381Z,4.70
2023-11-01T17:33:25.546Z,4.30
2023-11-01T17:35:52.208Z,3.77
2023-11-01T17:38:18.667Z,3.47
2023-11-01T17:40:45.199Z,6.30
2023-11-01T17:43:13.637Z,4.03
2023-11-01T17:45:40.214Z,3.77
2023-11-01T17:48:07.298Z,3.90
2023-11-01T17:50:34.280Z,3.87
2023-11-01T17:53:00.843Z,5.13
2023-11-01T17:55:27.958Z,3.97
2023-11-01T17:57:54.464Z,3.30
2023-11-01T18:00:21.912Z,3.93
2023-11-01T18:03:27.917Z,3.50
2023-11-01T18:05:55.288Z,3.43
2023-11-01T18:08:30.691Z,5.23
2023-11-01T18:10:57.363Z,5.10
2023-11-01T18:13:25.743Z,3.97
2023-11-01T18:15:55.189Z,3.43
2023-11-01T18:18:30.326Z,4.47
2023-11-01T18:21:08.128Z,3.60
2023-11-01T18:23:34.925Z,4.73
2023-11-01T18:26:08.950Z,4.13
2023-11-01T18:28:39.830Z,4.10
2023-11-01T18:31:13.779Z,4.40
2023-11-01T18:33:40.612Z,6.33
2023-11-01T18:36:07.469Z,6.00
2023-11-01T18:38:46.173Z,3.80
2023-11-01T18:41:12.723Z,6.03
2023-11-01T18:43:39.319Z,4.67
2023-11-01T18:46:06.276Z,5.70
2023-11-01T18:48:33.112Z,4.37
2023-11-01T18:50:59.710Z,8.20
2023-11-01T18:53:31.713Z,4.13
2023-11-01T18:55:58.335Z,6.40
2023-11-01T18:58:25.328Z,4.20
2023-11-01T19:00:54.941Z,8.53
2023-11-01T19:03:22.028Z,8.30
2023-11-01T19:05:48.778Z,5.23
2023-11-01T19:08:15.980Z,5.50
2023-11-01T19:10:43.827Z,5.43
2023-11-01T19:13:10.658Z,5.20
2023-11-01T19:15:39.850Z,8.13
2023-11-01T19:18:10.484Z,6.37
2023-11-01T19:20:37.932Z,5.53
2023-11-01T19:23:05.179Z,3.80
2023-11-01T19:25:31.750Z,4.80
2023-11-01T19:27:58.296Z,5.73
2023-11-01T19:30:24.843Z,3.97
2023-11-01T19:32:51.459Z,3.97
2023-11-01T19:35:18.125Z,4.27
2023-11-01T19:37:45.207Z,3.90
2023-11-01T19:40:11.801Z,4.33
2023-11-01T19:42:38.350Z,4.00
2023-11-01T19:45:05.446Z,4.17
2023-11-01T19:47:32.154Z,8.97
2023-11-01T19:49:58.825Z,6.23
2023-11-01T19:52:28.073Z,4.00
2023-11-01T19:54:54.688Z,4.77
2023-11-01T19:57:21.399Z,3.13
2023-11-01T19:59:49.013Z,3.20
2023-11-01T20:02:16.124Z,4.90
2023-11-01T20:04:43.755Z,5.80
2023-11-01T20:07:10.425Z,4.57
2023-11-01T20:09:38.635Z,4.47
2023-11-01T20:12:05.997Z,4.93
2023-11-01T20:14:32.583Z,5.03
2023-11-01T20:16:59.113Z,3.10
2023-11-01T20:19:25.644Z,3.60
2023-11-01T20:21:52.293Z,4.27
2023-11-01T20:24:19.016Z,3.87
2023-11-01T20:26:45.614Z,3.83
2023-11-01T20:29:13.100Z,4.77
2023-11-01T20:31:39.685Z,5.60
2023-11-01T20:34:06.472Z,3.73
2023-11-01T20:36:33.154Z,4.53
2023-11-01T20:38:59.717Z,4.20
2023-11-01T20:41:26.287Z,4.30
2023-11-01T20:43:52.842Z,6.13
2023-11-01T20:46:19.450Z,4.73
2023-11-01T20:48:46.324Z,3.90
2023-11-01T20:51:13.066Z,4.00
2023-11-01T20:53:42.272Z,3.23
2023-11-01T20:56:09.581Z,4.50
2023-11-01T20:58:36.210Z,3.30
2023-11-01T21:01:02.915Z,5.57
2023-11-01T21:03:30.124Z,3.33
2023-11-01T21:05:58.341Z,3.73
2023-11-01T21:08:25.071Z,3.40
2023-11-01T21:10:53.479Z,4.90
2023-11-01T21:13:20.028Z,4.20
2023-11-01T21:15:46.585Z,4.53
2023-11-01T21:18:13.247Z,4.20
2023-11-01T21:20:40.020Z,3.80
2023-11-01T21:23:06.597Z,3.40
2023-11-01T21:25:33.208Z,4.03
2023-11-01T21:28:01.285Z,4.67
2023-11-01T21:30:27.954Z,3.73
2023-11-01T21:32:54.706Z,6.73
2023-11-01T21:35:31.354Z,3.53
2023-11-01T21:38:04.170Z,5.27
2023-11-01T21:40:30.782Z,4.73
2023-11-01T21:42:57.333Z,3.80
2023-11-01T21:45:23.918Z,3.63
2023-11-01T21:47:50.587Z,3.37
2023-11-01T21:50:18.243Z,3.13
2023-11-01T21:52:44.802Z,6.73
2023-11-01T21:55:12.457Z,4.17
2023-11-01T21:57:39.032Z,6.03
2023-11-01T22:00:09.755Z,3.10
2023-11-01T22:02:49.829Z,4.77
2023-11-01T22:05:17.052Z,4.47
2023-11-01T22:07:43.935Z,6.13
2023-11-01T22:10:15.548Z,5.03
2023-11-01T22:12:42.478Z,6.70
2023-11-01T22:15:24.121Z,4.30
2023-11-01T22:17:51.697Z,4.97
2023-11-01T22:20:22.924Z,3.33
2023-11-01T22:22:59.290Z,4.57
2023-11-01T22:25:35.583Z,4.67
2023-11-01T22:28:08.030Z,4.97
2023-11-01T22:30:36.207Z,4.87
2023-11-01T22:33:08.921Z,4.40
2023-11-01T22:35:40.568Z,3.77
2023-11-01T22:38:07.511Z,3.53
2023-11-01T22:40:34.058Z,5.23
2023-11-01T22:43:00.669Z,4.00
2023-11-01T22:45:27.314Z,3.57
2023-11-01T22:47:54.003Z,2.67
2023-11-01T22:50:20.548Z,3.83
2023-11-01T22:52:47.064Z,3.23
2023-11-01T22:55:13.681Z,4.30
2023-11-01T22:57:40.214Z,4.40
2023-11-01T23:00:13.806Z,2.83
2023-11-01T23:02:42.523Z,2.97
2023-11-01T23:05:09.880Z,2.90
2023-11-01T23:07:36.481Z,3.43
2023-11-01T23:10:03.298Z,2.50
2023-11-01T23:12:29.990Z,3.07
2023-11-01T23:14:56.564Z,3.53
2023-11-01T23:17:24.643Z,3.83
2023-11-01T23:19:51.854Z,3.07
2023-11-01T23:22:19.533Z,3.50
2023-11-01T23:24:46.220Z,3.50
2023-11-01T23:27:12.867Z,4.90
2023-11-01T23:29:39.853Z,4.33
2023-11-01T23:32:13.795Z,3.37
2023-11-01T23:34:48.551Z,2.87
2023-11-01T23:37:19.100Z,4.10
2023-11-01T23:39:46.075Z,2.63
2023-11-01T23:42:13.641Z,3.97
2023-11-01T23:44:41.111Z,2.60
2023-11-01T23:47:12.921Z,3.77
2023-11-01T23:49:51.460Z,3.60
2023-11-01T23:52:18.549Z,3.43
2023-11-01T23:54:45.591Z,2.50
2023-11-01T23:57:12.631Z,3.57
2023-11-01T23:59:39.383Z,3.40
